createdAt,value
2018-03-17T18:46:16.358Z,1003.78
2018-03-17T18:47:16.306Z,1003.89
2018-03-17T18:48:16.269Z,1003.91
2018-03-17T18:49:16.236Z,1003.83
2018-03-17T18:50:16.207Z,1003.82
2018-03-17T18:51:16.181Z,1003.79
2018-03-17T18:52:16.144Z,1003.80
2018-03-17T18:53:16.115Z,1003.92
2018-03-17T18:54:16.088Z,1003.94
2018-03-17T18:55:16.059Z,1003.88
2018-03-17T18:56:16.018Z,1003.94
2018-03-17T18:57:15.989Z,1003.88
2018-03-17T18:58:15.962Z,1003.90
2018-03-17T18:59:15.932Z,1003.95
2018-03-17T19:00:15.907Z,1003.87
2018-03-17T19:01:15.974Z,1003.92
2018-03-17T19:02:15.952Z,1003.97
2018-03-17T19:03:16.070Z,1003.75
2018-03-17T19:04:15.886Z,1003.91
2018-03-17T19:05:15.845Z,1003.82
2018-03-17T19:06:15.724Z,1003.95
2018-03-17T19:07:15.691Z,1003.89
2018-03-17T19:08:15.661Z,1003.94
2018-03-17T19:09:15.639Z,1003.90
2018-03-17T19:10:15.598Z,1003.87
2018-03-17T19:11:15.574Z,1003.97
2018-03-17T19:12:15.542Z,1003.99
2018-03-17T19:13:15.512Z,1003.84
2018-03-17T19:14:15.478Z,1003.83
2018-03-17T19:15:15.450Z,1003.92
2018-03-17T19:16:15.421Z,1003.82
2018-03-17T19:17:15.394Z,1003.88
2018-03-17T19:18:15.363Z,1003.93
2018-03-17T19:19:15.332Z,1004.03
2018-03-17T19:20:15.302Z,1004.00
2018-03-17T19:21:15.271Z,1003.94
2018-03-17T19:22:15.244Z,1003.99
2018-03-17T19:23:15.213Z,1003.99
2018-03-17T19:24:15.182Z,1004.05
2018-03-17T19:25:15.147Z,1004.05
2018-03-17T19:26:15.123Z,1004.06
2018-03-17T19:27:15.096Z,1003.93
2018-03-17T19:28:15.063Z,1004.03
2018-03-17T19:29:15.030Z,1004.21
2018-03-17T19:30:15.003Z,1004.05
2018-03-17T19:31:14.994Z,1004.12
2018-03-17T19:32:14.941Z,1004.07
2018-03-17T19:33:14.911Z,1004.10
2018-03-17T19:34:14.884Z,1004.11
2018-03-17T19:35:14.857Z,1004.08
2018-03-17T19:36:14.822Z,1004.09
2018-03-17T19:37:14.792Z,1003.88
2018-03-17T19:38:14.781Z,1004.11
2018-03-17T19:39:14.732Z,1004.14
2018-03-17T19:40:14.699Z,1004.03
2018-03-17T19:41:14.678Z,1004.11
2018-03-17T19:42:14.638Z,1004.16
